createdAt,value
2022-09-24T00:01:30.835Z,7.07
2022-09-24T00:04:03.257Z,7.87
2022-09-24T00:06:31.599Z,10.82
2022-09-24T00:08:59.378Z,6.55
2022-09-24T00:11:27.882Z,7.57
2022-09-24T00:13:56.428Z,7.18
2022-09-24T00:16:24.636Z,7.87
2022-09-24T00:18:52.814Z,6.60
2022-09-24T00:21:25.849Z,7.87
2022-09-24T00:23:55.577Z,6.40
2022-09-24T00:26:42.249Z,8.75
2022-09-24T00:29:10.577Z,9.13
2022-09-24T00:31:38.351Z,7.68
2022-09-24T00:34:06.333Z,9.07
2022-09-24T00:36:34.163Z,8.30
2022-09-24T00:39:01.893Z,8.27
2022-09-24T00:41:34.493Z,7.60
2022-09-24T00:44:02.450Z,8.80
2022-09-24T00:46:34.151Z,8.45
2022-09-24T00:49:20.249Z,7.90
2022-09-24T00:51:51.590Z,7.20
2022-09-24T00:54:22.249Z,9.20
2022-09-24T00:56:50.482Z,9.10
2022-09-24T00:59:19.124Z,10.07
2022-09-24T01:01:47.568Z,7.00
2022-09-24T01:04:15.774Z,9.80
2022-09-24T01:06:43.560Z,7.90
2022-09-24T01:09:11.284Z,8.02
2022-09-24T01:11:53.565Z,7.87
2022-09-24T01:14:34.222Z,7.72
2022-09-24T01:17:24.141Z,6.70
2022-09-24T01:20:22.794Z,8.15
2022-09-24T01:23:10.696Z,8.18
2022-09-24T01:26:21.000Z,8.07
2022-09-24T01:29:07.308Z,8.27
2022-09-24T01:31:42.911Z,7.50
2022-09-24T01:34:10.692Z,11.20
2022-09-24T01:36:38.604Z,9.57
2022-09-24T01:39:06.521Z,11.40
2022-09-24T01:41:35.355Z,7.47
2022-09-24T01:44:06.633Z,11.12
2022-09-24T01:46:34.940Z,11.50
2022-09-24T01:49:02.725Z,8.30
2022-09-24T01:51:34.395Z,7.20
2022-09-24T01:54:04.795Z,9.40
2022-09-24T01:56:42.754Z,8.57
2022-09-24T01:59:32.367Z,7.32
2022-09-24T02:02:03.027Z,8.55
2022-09-24T02:04:35.027Z,8.38
2022-09-24T02:07:04.673Z,8.30
2022-09-24T02:09:36.257Z,9.38
2022-09-24T02:12:14.605Z,9.90
2022-09-24T02:14:46.252Z,13.35
2022-09-24T02:17:13.972Z,8.32
2022-09-24T02:19:41.967Z,9.18
2022-09-24T02:22:10.505Z,11.20
2022-09-24T02:24:46.631Z,9.60
2022-09-24T02:27:14.350Z,9.30
2022-09-24T02:29:42.102Z,11.40
2022-09-24T02:32:10.512Z,9.93
2022-09-24T02:34:41.167Z,9.07
2022-09-24T02:37:11.726Z,9.90
2022-09-24T02:39:39.459Z,9.00
2022-09-24T02:42:07.324Z,10.02
2022-09-24T02:44:35.192Z,9.48
2022-09-24T02:47:02.901Z,10.57
2022-09-24T02:49:30.660Z,9.13
2022-09-24T02:51:58.408Z,10.63
2022-09-24T02:54:28.937Z,8.90
2022-09-24T02:56:56.662Z,9.55
2022-09-24T02:59:24.353Z,9.07
2022-09-24T03:01:52.255Z,9.38
2022-09-24T03:04:20.136Z,9.95
2022-09-24T03:06:47.884Z,8.55
2022-09-24T03:09:15.748Z,9.50
2022-09-24T03:11:43.482Z,9.80
2022-09-24T03:14:11.279Z,8.73
2022-09-24T03:16:39.079Z,8.52
2022-09-24T03:19:07.519Z,8.60
2022-09-24T03:21:35.312Z,9.15
2022-09-24T03:24:03.271Z,7.75
2022-09-24T03:26:31.078Z,7.93
2022-09-24T03:28:58.802Z,7.43
2022-09-24T03:31:26.619Z,7.43
2022-09-24T03:33:54.335Z,7.10
2022-09-24T03:36:26.077Z,7.53
2022-09-24T03:38:57.396Z,7.32
2022-09-24T03:41:26.189Z,6.68
2022-09-24T03:43:54.159Z,6.85
2022-09-24T03:46:21.932Z,6.75
2022-09-24T03:48:50.292Z,6.53
2022-09-24T03:53:54.864Z,8.88
2022-09-24T03:56:35.189Z,6.45
2022-09-24T03:59:08.183Z,6.87
2022-09-24T04:02:00.476Z,7.22
2022-09-24T04:04:55.567Z,7.35
2022-09-24T04:07:35.871Z,8.20
2022-09-24T04:10:18.156Z,6.65
2022-09-24T04:15:35.181Z,7.47
2022-09-24T04:18:03.215Z,8.23
2022-09-24T04:20:36.199Z,8.48
2022-09-24T04:23:29.535Z,8.93
2022-09-24T04:25:57.400Z,7.10
2022-09-24T04:28:43.099Z,7.25
2022-09-24T04:31:10.980Z,7.40
2022-09-24T04:33:45.251Z,7.05
2022-09-24T04:36:25.354Z,8.55
2022-09-24T04:38:58.740Z,9.40
2022-09-24T04:41:31.892Z,8.13
2022-09-24T04:44:08.378Z,8.65
2022-09-24T04:46:44.044Z,7.57
2022-09-24T04:49:16.482Z,7.93
2022-09-24T04:51:52.030Z,7.05
2022-09-24T04:54:54.338Z,7.37
2022-09-24T04:57:27.896Z,7.93
2022-09-24T04:59:59.169Z,8.88
2022-09-24T05:02:27.202Z,8.55
2022-09-24T05:05:00.143Z,8.15
2022-09-24T05:07:32.964Z,7.82
2022-09-24T05:10:08.743Z,7.75
2022-09-24T05:12:41.953Z,9.70
2022-09-24T05:15:11.131Z,7.87
2022-09-24T05:17:46.262Z,7.85
2022-09-24T05:20:20.351Z,7.72
2022-09-24T05:22:53.926Z,7.70
2022-09-24T05:25:35.607Z,9.00
2022-09-24T05:28:09.021Z,8.90
2022-09-24T05:30:44.089Z,7.93
2022-09-24T05:33:24.052Z,7.32
2022-09-24T05:35:59.123Z,9.30
2022-09-24T05:38:41.704Z,6.93
2022-09-24T05:41:22.000Z,8.57
2022-09-24T05:43:52.057Z,6.78
2022-09-24T05:46:45.214Z,6.85
2022-09-24T05:49:18.687Z,6.53
2022-09-24T05:52:19.086Z,8.13
2022-09-24T05:54:59.132Z,7.75
2022-09-24T05:57:31.921Z,8.05
2022-09-24T06:00:04.434Z,4.70
2022-09-24T06:03:06.465Z,4.15
2022-09-24T06:05:50.219Z,5.30
2022-09-24T06:08:30.264Z,4.50
2022-09-24T06:11:14.268Z,4.10
2022-09-24T06:13:52.351Z,5.75
2022-09-24T06:16:21.610Z,2.95
2022-09-24T06:18:59.145Z,4.55
2022-09-24T06:21:27.818Z,9.00
2022-09-24T06:23:58.527Z,9.80
2022-09-24T06:26:38.936Z,25.15
2022-09-24T06:29:18.911Z,5.53
2022-09-24T06:31:57.576Z,2.70
2022-09-24T06:34:30.389Z,2.95
2022-09-24T06:37:33.173Z,4.18
2022-09-24T06:40:06.725Z,3.05
2022-09-24T06:42:34.594Z,2.87
2022-09-24T06:45:14.336Z,6.10
2022-09-24T06:47:52.980Z,3.58
2022-09-24T06:50:29.825Z,3.42
2022-09-24T06:53:04.331Z,3.22
2022-09-24T06:55:37.118Z,4.43
2022-09-24T06:58:15.025Z,3.97
2022-09-24T07:00:52.401Z,6.45
2022-09-24T07:03:25.897Z,5.72
2022-09-24T07:05:53.672Z,4.40
2022-09-24T07:08:33.071Z,4.50
2022-09-24T07:11:17.947Z,3.40
2022-09-24T07:13:58.089Z,5.53
2022-09-24T07:16:30.182Z,5.05
2022-09-24T07:19:03.218Z,5.47
2022-09-24T07:21:42.048Z,3.60
2022-09-24T07:24:14.895Z,3.90
2022-09-24T07:26:47.853Z,5.25
2022-09-24T07:29:30.401Z,3.72
2022-09-24T07:32:10.518Z,5.00
2022-09-24T07:34:51.989Z,3.65
2022-09-24T07:37:22.874Z,4.55
2022-09-24T07:39:53.409Z,4.65
2022-09-24T07:42:27.209Z,3.75
2022-09-24T07:45:10.911Z,4.78
2022-09-24T07:47:38.615Z,3.67
2022-09-24T07:50:19.076Z,3.80
2022-09-24T07:52:53.410Z,4.00
2022-09-24T07:55:46.207Z,4.12
2022-09-24T07:58:39.269Z,4.20
2022-09-24T08:01:15.559Z,3.70
2022-09-24T08:04:11.708Z,3.72
2022-09-24T08:07:04.760Z,3.17
2022-09-24T08:09:37.511Z,3.05
2022-09-24T08:12:11.144Z,3.22
2022-09-24T08:14:44.481Z,4.62
2022-09-24T08:17:44.051Z,3.33
2022-09-24T08:20:25.431Z,4.30
2022-09-24T08:23:11.752Z,3.03
2022-09-24T08:26:02.178Z,3.20
2022-09-24T08:31:50.022Z,3.08
2022-09-24T08:37:30.298Z,4.45
2022-09-24T08:42:42.464Z,5.00
2022-09-24T08:45:39.342Z,7.95
2022-09-24T08:48:35.116Z,7.22
2022-09-24T08:51:41.606Z,5.60
2022-09-24T08:54:25.311Z,4.12
2022-09-24T08:56:58.504Z,5.25
2022-09-24T08:59:38.888Z,6.15
2022-09-24T09:02:16.664Z,4.62
2022-09-24T09:05:09.299Z,5.00
2022-09-24T09:08:09.679Z,4.55
2022-09-24T09:10:53.735Z,4.93
2022-09-24T09:13:39.444Z,5.93
2022-09-24T09:17:22.968Z,4.20
2022-09-24T09:20:00.330Z,4.10
2022-09-24T09:22:37.332Z,4.07
2022-09-24T09:25:38.095Z,3.12
2022-09-24T09:28:35.310Z,4.80
2022-09-24T09:31:36.969Z,3.22
2022-09-24T09:34:32.730Z,3.00
2022-09-24T09:37:19.927Z,4.00
2022-09-24T09:40:18.691Z,2.90
2022-09-24T09:42:51.279Z,3.58
2022-09-24T09:45:31.437Z,3.58
2022-09-24T09:48:23.777Z,3.17
2022-09-24T09:51:06.347Z,3.15
2022-09-24T09:53:44.995Z,3.42
2022-09-24T09:56:15.858Z,4.37
2022-09-24T09:59:12.721Z,3.60
2022-09-24T10:01:47.826Z,3.75
2022-09-24T10:04:42.216Z,3.40
2022-09-24T10:07:16.512Z,3.92
2022-09-24T10:09:49.144Z,3.85
2022-09-24T10:12:25.716Z,4.97
2022-09-24T10:15:01.849Z,5.32
2022-09-24T10:17:36.506Z,3.50
2022-09-24T10:20:42.270Z,5.87
2022-09-24T10:23:40.345Z,3.62
2022-09-24T10:26:13.990Z,4.40
2022-09-24T10:29:10.380Z,3.78
2022-09-24T10:31:43.217Z,4.00
2022-09-24T10:34:25.756Z,4.20
2022-09-24T10:37:10.931Z,3.65
2022-09-24T10:39:44.461Z,4.25
2022-09-24T10:42:25.518Z,5.10
2022-09-24T10:44:54.726Z,4.07
2022-09-24T10:47:44.710Z,4.30
2022-09-24T10:50:42.929Z,3.75
2022-09-24T10:53:40.659Z,3.80
2022-09-24T10:56:43.725Z,3.62
2022-09-24T10:59:44.481Z,4.45
2022-09-24T11:02:40.795Z,4.72
2022-09-24T11:05:16.727Z,3.60
2022-09-24T11:08:05.697Z,3.80
2022-09-24T11:11:02.644Z,4.43
2022-09-24T11:14:12.954Z,3.58
2022-09-24T11:16:59.809Z,3.45
2022-09-24T11:20:16.728Z,3.45
2022-09-24T11:23:15.598Z,3.40
2022-09-24T11:26:18.770Z,4.18
2022-09-24T11:29:16.502Z,3.87
2022-09-24T11:32:22.545Z,5.35
2022-09-24T11:35:04.454Z,3.62
2022-09-24T11:37:48.565Z,4.25
2022-09-24T11:44:02.268Z,3.15
2022-09-24T11:47:06.130Z,3.35
2022-09-24T11:50:09.484Z,3.45
2022-09-24T11:52:57.730Z,3.75
2022-09-24T11:55:35.476Z,4.43
2022-09-24T11:58:19.518Z,3.17
2022-09-24T12:01:10.789Z,3.80
2022-09-24T12:03:59.999Z,3.10
2022-09-24T12:06:36.903Z,3.62
2022-09-24T12:09:21.022Z,3.50
2022-09-24T12:11:56.267Z,2.78
2022-09-24T12:14:49.270Z,3.15
2022-09-24T12:17:30.117Z,2.58
2022-09-24T12:20:21.375Z,3.03
2022-09-24T12:23:02.070Z,4.35
2022-09-24T12:25:47.429Z,2.80
2022-09-24T12:28:40.274Z,2.58
2022-09-24T12:31:54.481Z,2.67
2022-09-24T12:34:30.865Z,3.78
2022-09-24T12:37:25.728Z,2.45
2022-09-24T12:40:25.400Z,2.95
2022-09-24T12:43:00.836Z,3.17
2022-09-24T12:45:34.613Z,2.30
2022-09-24T12:48:08.074Z,3.20
2022-09-24T12:50:50.111Z,2.30
2022-09-24T12:53:29.197Z,2.50
2022-09-24T12:56:21.949Z,2.72
2022-09-24T12:58:50.577Z,2.22
2022-09-24T13:01:25.509Z,3.45
2022-09-24T13:04:15.245Z,2.35
2022-09-24T13:07:10.976Z,3.35
2022-09-24T13:10:19.442Z,3.25
2022-09-24T13:13:21.373Z,2.42
2022-09-24T13:16:09.577Z,3.25
2022-09-24T13:18:40.544Z,3.62
2022-09-24T13:21:09.355Z,18.58
2022-09-24T13:23:42.086Z,3.97
2022-09-24T13:26:10.437Z,4.18
2022-09-24T13:28:52.386Z,3.53
2022-09-24T13:31:28.380Z,7.37
2022-09-24T13:34:05.849Z,4.12
2022-09-24T13:36:38.451Z,3.72
2022-09-24T13:39:13.098Z,3.65
2022-09-24T13:42:16.694Z,2.50
2022-09-24T13:44:49.462Z,3.55
2022-09-24T13:47:43.630Z,2.62
2022-09-24T13:50:17.860Z,2.25
2022-09-24T13:53:00.283Z,3.40
2022-09-24T13:55:35.780Z,2.37
2022-09-24T13:58:03.581Z,3.15
2022-09-24T14:00:38.388Z,2.50
2022-09-24T14:03:26.872Z,2.10
2022-09-24T14:06:20.204Z,2.85
2022-09-24T14:08:52.954Z,2.30
2022-09-24T14:11:32.079Z,2.40
2022-09-24T14:14:12.679Z,2.80
2022-09-24T14:16:45.500Z,3.10
2022-09-24T14:19:27.222Z,2.70
2022-09-24T14:22:00.895Z,3.62
2022-09-24T14:24:35.002Z,3.70
2022-09-24T14:27:14.696Z,3.78
2022-09-24T14:29:59.168Z,5.18
2022-09-24T14:32:35.351Z,4.10
2022-09-24T14:35:36.326Z,2.15
2022-09-24T14:38:27.035Z,2.30
2022-09-24T14:40:57.832Z,2.12
2022-09-24T14:43:47.270Z,1.70
2022-09-24T14:46:24.006Z,20.80
2022-09-24T14:49:14.909Z,2.60
2022-09-24T14:52:19.706Z,4.93
2022-09-24T14:55:05.732Z,2.58
2022-09-24T14:57:42.252Z,2.58
2022-09-24T15:00:37.021Z,2.60
2022-09-24T15:03:13.594Z,3.35
2022-09-24T15:05:47.253Z,3.08
2022-09-24T15:08:29.098Z,4.07
2022-09-24T15:11:03.691Z,3.28
2022-09-24T15:13:41.221Z,3.12
2022-09-24T15:16:23.227Z,3.85
2022-09-24T15:19:12.343Z,2.90
2022-09-24T15:21:46.273Z,3.35
2022-09-24T15:24:21.471Z,2.40
2022-09-24T15:26:53.972Z,1.67
2022-09-24T15:29:25.165Z,2.30
2022-09-24T15:31:57.647Z,3.15
2022-09-24T15:34:49.037Z,2.12
2022-09-24T15:37:28.274Z,2.22
2022-09-24T15:40:12.796Z,2.30
2022-09-24T15:42:49.028Z,2.20
2022-09-24T15:45:30.667Z,2.55
2022-09-24T15:48:03.308Z,2.90
2022-09-24T15:50:34.178Z,3.03
2022-09-24T15:53:04.777Z,3.53
2022-09-24T15:55:40.499Z,3.05
2022-09-24T15:58:17.212Z,2.67
2022-09-24T16:00:51.781Z,2.40
2022-09-24T16:03:32.610Z,2.70
2022-09-24T16:06:00.842Z,2.50
2022-09-24T16:08:37.613Z,2.55
2022-09-24T16:11:09.016Z,2.45
2022-09-24T16:13:41.965Z,2.92
2022-09-24T16:16:23.913Z,4.68
2022-09-24T16:18:52.945Z,4.55
2022-09-24T16:21:25.436Z,4.62
2022-09-24T16:24:02.744Z,2.55
2022-09-24T16:26:44.207Z,3.90
2022-09-24T16:29:22.695Z,2.47
2022-09-24T16:31:53.374Z,3.65
2022-09-24T16:34:25.208Z,2.25
2022-09-24T16:36:57.815Z,2.65
2022-09-24T16:39:32.415Z,3.08
2022-09-24T16:42:04.249Z,2.87
2022-09-24T16:44:48.027Z,3.80
2022-09-24T16:47:32.737Z,3.12
2022-09-24T16:50:20.718Z,3.10
2022-09-24T16:53:06.818Z,3.37
2022-09-24T16:55:40.396Z,3.47
2022-09-24T16:58:19.712Z,3.17
2022-09-24T17:00:54.966Z,3.05
2022-09-24T17:03:28.345Z,4.07
2022-09-24T17:06:19.471Z,4.65
2022-09-24T17:09:19.786Z,4.03
2022-09-24T17:12:09.342Z,7.95
2022-09-24T17:14:43.383Z,3.95
2022-09-24T17:17:49.204Z,4.60
2022-09-24T17:20:22.842Z,4.22
2022-09-24T17:22:59.125Z,4.72
2022-09-24T17:25:27.907Z,6.78
2022-09-24T17:28:01.364Z,5.90
2022-09-24T17:30:36.541Z,8.70
2022-09-24T17:33:38.722Z,8.85
2022-09-24T17:36:05.102Z,6.53
2022-09-24T17:38:40.870Z,6.03
2022-09-24T17:41:12.703Z,8.18
2022-09-24T17:43:52.521Z,9.45
2022-09-24T17:46:25.155Z,9.32
2022-09-24T17:48:57.446Z,7.28
2022-09-24T17:51:28.598Z,9.20
2022-09-24T17:54:05.183Z,6.57
2022-09-24T17:56:40.055Z,6.85
2022-09-24T17:59:14.623Z,7.60
2022-09-24T18:01:45.547Z,6.62
2022-09-24T18:04:17.919Z,7.35
2022-09-24T18:06:55.168Z,6.20
2022-09-24T18:09:28.975Z,7.32
2022-09-24T18:11:59.395Z,6.25
2022-09-24T18:14:50.980Z,8.30
2022-09-24T18:17:18.741Z,7.57
2022-09-24T18:19:56.012Z,9.18
2022-09-24T18:22:38.302Z,12.90
2022-09-24T18:25:10.910Z,8.57
2022-09-24T18:27:45.726Z,11.27
2022-09-24T18:30:18.570Z,11.65
2022-09-24T18:32:53.425Z,11.77
2022-09-24T18:35:26.103Z,11.82
2022-09-24T18:38:03.930Z,15.25
2022-09-24T18:40:38.035Z,10.00
2022-09-24T18:43:08.790Z,11.93
2022-09-24T18:45:39.998Z,11.52
2022-09-24T18:48:08.323Z,12.55
2022-09-24T18:50:45.527Z,12.48
2022-09-24T18:53:16.109Z,12.45
2022-09-24T18:55:51.147Z,13.85
2022-09-24T18:58:23.668Z,12.02
2022-09-24T19:00:59.016Z,10.55
2022-09-24T19:03:34.754Z,11.20
2022-09-24T19:06:07.227Z,15.00
2022-09-24T19:08:35.804Z,11.12
2022-09-24T19:11:10.944Z,12.32
2022-09-24T19:13:39.808Z,11.93
2022-09-24T19:16:19.544Z,10.63
2022-09-24T19:19:02.036Z,10.60
2022-09-24T19:21:37.232Z,10.82
2022-09-24T19:24:20.972Z,9.55
2022-09-24T19:26:53.446Z,7.97
2022-09-24T19:29:21.260Z,8.55
2022-09-24T19:31:57.027Z,9.15
2022-09-24T19:34:33.307Z,8.43
2022-09-24T19:37:05.808Z,8.00
2022-09-24T19:39:36.817Z,8.32
2022-09-24T19:42:09.316Z,7.40
2022-09-24T19:44:52.790Z,6.12
2022-09-24T19:47:27.571Z,6.07
2022-09-24T19:50:16.501Z,5.93
2022-09-24T19:52:49.884Z,7.15
2022-09-24T19:55:17.749Z,5.95
2022-09-24T19:57:50.814Z,5.55
2022-09-24T20:00:26.135Z,6.10
2022-09-24T20:02:59.702Z,6.95
2022-09-24T20:05:32.702Z,6.10
2022-09-24T20:14:18.541Z,7.35
2022-09-24T20:16:46.251Z,5.45
2022-09-24T20:19:14.172Z,7.55
2022-09-24T20:21:41.938Z,6.22
2022-09-24T20:24:12.384Z,5.40
2022-09-24T20:26:58.606Z,7.28
2022-09-24T20:29:26.547Z,5.20
2022-09-24T20:32:01.586Z,6.07
2022-09-24T20:34:34.574Z,5.25
2022-09-24T20:37:06.768Z,7.50
2022-09-24T20:39:34.761Z,7.10
2022-09-24T20:42:04.779Z,5.82
2022-09-24T20:44:33.238Z,6.30
2022-09-24T20:47:01.296Z,8.93
2022-09-24T20:49:29.316Z,4.78
2022-09-24T20:51:58.012Z,5.62
2022-09-24T20:54:26.983Z,7.20
2022-09-24T20:56:54.787Z,31.17
2022-09-24T20:59:22.580Z,8.45
2022-09-24T21:01:50.464Z,8.00
2022-09-24T21:04:20.984Z,8.10
2022-09-24T21:06:49.536Z,8.57
2022-09-24T21:09:18.284Z,12.52
2022-09-24T21:11:51.271Z,7.43
2022-09-24T21:14:19.710Z,4.78
2022-09-24T21:16:50.667Z,5.82
2022-09-24T21:19:18.476Z,6.05
2022-09-24T21:21:46.231Z,6.43
2022-09-24T21:24:15.639Z,5.00
2022-09-24T21:26:43.840Z,5.20
2022-09-24T21:29:17.625Z,4.30
2022-09-24T21:31:47.253Z,5.78
2022-09-24T21:34:17.082Z,4.53
2022-09-24T21:36:46.613Z,6.62
2022-09-24T21:39:24.042Z,6.18
2022-09-24T21:41:54.080Z,5.32
2022-09-24T21:44:22.682Z,4.70
2022-09-24T21:46:53.438Z,5.32
2022-09-24T21:49:21.250Z,6.45
2022-09-24T21:51:49.029Z,5.05
2022-09-24T21:54:18.292Z,4.95
2022-09-24T21:56:46.504Z,4.75
2022-09-24T21:59:33.763Z,4.70
2022-09-24T22:02:01.747Z,6.82
2022-09-24T22:04:29.954Z,5.80
2022-09-24T22:06:57.749Z,5.05
2022-09-24T22:09:26.647Z,4.70
2022-09-24T22:11:56.950Z,5.27
2022-09-24T22:14:24.792Z,4.95
2022-09-24T22:16:52.671Z,5.25
2022-09-24T22:19:20.604Z,5.43
2022-09-24T22:21:48.503Z,5.83
2022-09-24T22:24:18.993Z,6.17
2022-09-24T22:26:47.290Z,5.40
2022-09-24T22:29:17.233Z,12.65
2022-09-24T22:31:48.645Z,5.95
2022-09-24T22:34:34.811Z,6.15
2022-09-24T22:37:06.150Z,6.22
2022-09-24T22:39:35.060Z,6.32
2022-09-24T22:42:02.790Z,6.45
2022-09-24T22:44:30.591Z,6.47
2022-09-24T22:46:58.336Z,5.32
2022-09-24T22:49:26.904Z,6.10
2022-09-24T22:51:54.738Z,4.43
2022-09-24T22:54:24.173Z,5.10
2022-09-24T22:56:52.131Z,4.07
2022-09-24T22:59:20.308Z,4.32
2022-09-24T23:01:48.052Z,4.97
2022-09-24T23:04:16.134Z,4.68
2022-09-24T23:06:44.693Z,4.23
2022-09-24T23:09:12.515Z,5.87
2022-09-24T23:11:40.514Z,4.35
2022-09-24T23:14:12.234Z,4.87
2022-09-24T23:16:40.350Z,4.37
2022-09-24T23:19:14.847Z,4.78
2022-09-24T23:21:42.757Z,5.55
2022-09-24T23:24:15.360Z,5.27
2022-09-24T23:26:43.218Z,4.32
2022-09-24T23:29:11.136Z,4.47
2022-09-24T23:31:38.945Z,5.15
2022-09-24T23:34:08.653Z,4.03
2022-09-24T23:36:36.725Z,6.47
2022-09-24T23:39:04.870Z,4.57
2022-09-24T23:41:32.786Z,4.25
2022-09-24T23:44:00.872Z,4.30
2022-09-24T23:46:28.761Z,4.73
2022-09-24T23:48:56.844Z,9.93
2022-09-24T23:51:24.587Z,6.73
2022-09-24T23:53:52.615Z,5.62
2022-09-24T23:56:20.548Z,5.73
2022-09-24T23:58:48.606Z,6.43
